RPV75 KLAX-KSFO
Flight info
| Callsign | RPV75 |
|---|---|
| Flight time | 1h 1m |
| Altitude | 32000 |
| Route | SUMMR2 STOKD SERFR SERFR4 |
| Aircraft | E170/M-SDE3GILORVW/S |
Departure
| Time | 2026-04-25 04:42 |
|---|---|
| Airport | Los Angeles International Airport (KLAX) |
Arrival
| Time | 2026-04-25 05:43 |
|---|---|
| Airport | San Francisco International Airport (KSFO) |
| Time | Latitude | Longitude | Altitude | Speed | Heading |
|---|---|---|---|---|---|
| 2026-04-25 04:14 | 33.94074 | -118.40614 | 123 ft | 0 kts | 251° |
| 2026-04-25 04:25 | 33.94075 | -118.40610 | 123 ft | 0 kts | 253° |
| 2026-04-25 04:26 | 33.94076 | -118.40607 | 123 ft | 2 kts | 252° |
| 2026-04-25 04:26 | 33.94076 | -118.40606 | 123 ft | 0 kts | 251° |
| 2026-04-25 04:26 | 33.94077 | -118.40604 | 123 ft | 1 kts | 251° |
| 2026-04-25 04:29 | 33.94081 | -118.40588 | 123 ft | 2 kts | 251° |
| 2026-04-25 04:29 | 33.94087 | -118.40572 | 123 ft | 2 kts | 238° |
| 2026-04-25 04:30 | 33.94098 | -118.40562 | 123 ft | 2 kts | 188° |
| 2026-04-25 04:30 | 33.94107 | -118.40562 | 123 ft | 0 kts | 170° |
| 2026-04-25 04:32 | 33.94101 | -118.40562 | 123 ft | 2 kts | 173° |
| 2026-04-25 04:33 | 33.94075 | -118.40558 | 123 ft | 5 kts | 173° |
| 2026-04-25 04:33 | 33.94035 | -118.40552 | 123 ft | 6 kts | 173° |
| 2026-04-25 04:33 | 33.94003 | -118.40547 | 123 ft | 0 kts | 173° |
| 2026-04-25 04:33 | 33.94001 | -118.40546 | 123 ft | 0 kts | 173° |
| 2026-04-25 04:35 | 33.93996 | -118.40546 | 123 ft | 1 kts | 173° |
| 2026-04-25 04:35 | 33.93986 | -118.40544 | 123 ft | 1 kts | 173° |
| 2026-04-25 04:35 | 33.93969 | -118.40542 | 123 ft | 3 kts | 173° |
| 2026-04-25 04:35 | 33.93935 | -118.40537 | 123 ft | 6 kts | 173° |
| 2026-04-25 04:36 | 33.93883 | -118.40530 | 123 ft | 7 kts | 174° |
| 2026-04-25 04:36 | 33.93834 | -118.40508 | 123 ft | 8 kts | 110° |
| 2026-04-25 04:36 | 33.93836 | -118.40435 | 122 ft | 9 kts | 85° |
| 2026-04-25 04:36 | 33.93842 | -118.40351 | 122 ft | 10 kts | 81° |
| 2026-04-25 04:37 | 33.93852 | -118.40258 | 121 ft | 11 kts | 84° |
| 2026-04-25 04:37 | 33.93863 | -118.40153 | 121 ft | 13 kts | 83° |
| 2026-04-25 04:37 | 33.93874 | -118.40037 | 120 ft | 14 kts | 82° |
| 2026-04-25 04:37 | 33.93888 | -118.39911 | 119 ft | 15 kts | 83° |
| 2026-04-25 04:38 | 33.93901 | -118.39776 | 118 ft | 17 kts | 84° |
| 2026-04-25 04:38 | 33.93916 | -118.39631 | 118 ft | 17 kts | 83° |
| 2026-04-25 04:38 | 33.93930 | -118.39480 | 118 ft | 18 kts | 83° |
| 2026-04-25 04:38 | 33.93945 | -118.39325 | 118 ft | 18 kts | 82° |
| 2026-04-25 04:39 | 33.93966 | -118.39163 | 117 ft | 20 kts | 84° |
| 2026-04-25 04:39 | 33.93980 | -118.38992 | 115 ft | 21 kts | 84° |
| 2026-04-25 04:39 | 33.94001 | -118.38802 | 113 ft | 23 kts | 83° |
| 2026-04-25 04:39 | 33.94021 | -118.38605 | 111 ft | 24 kts | 84° |
| 2026-04-25 04:40 | 33.94041 | -118.38392 | 109 ft | 25 kts | 84° |
| 2026-04-25 04:40 | 33.94062 | -118.38176 | 109 ft | 23 kts | 83° |
| 2026-04-25 04:40 | 33.94075 | -118.38052 | 109 ft | 5 kts | 85° |
| 2026-04-25 04:40 | 33.94071 | -118.38023 | 109 ft | 3 kts | 128° |
| 2026-04-25 04:41 | 33.94047 | -118.38005 | 109 ft | 4 kts | 163° |
| 2026-04-25 04:41 | 33.94001 | -118.38010 | 109 ft | 9 kts | 215° |
| 2026-04-25 04:41 | 33.93969 | -118.38160 | 109 ft | 48 kts | 263° |
| 2026-04-25 04:41 | 33.93891 | -118.38907 | 114 ft | 128 kts | 263° |
| 2026-04-25 04:42 | 33.93765 | -118.40192 | 315 ft | 171 kts | 263° |
| 2026-04-25 04:42 | 33.93621 | -118.41729 | 862 ft | 196 kts | 263° |
| 2026-04-25 04:42 | 33.93472 | -118.43372 | 1694 ft | 206 kts | 261° |
| 2026-04-25 04:42 | 33.93290 | -118.45042 | 2677 ft | 200 kts | 263° |
| 2026-04-25 04:43 | 33.93131 | -118.46712 | 3303 ft | 207 kts | 264° |
| 2026-04-25 04:43 | 33.92981 | -118.48410 | 4150 ft | 215 kts | 264° |
| 2026-04-25 04:43 | 33.92816 | -118.50338 | 4558 ft | 248 kts | 264° |
| 2026-04-25 04:43 | 33.92636 | -118.52487 | 5201 ft | 269 kts | 264° |
| 2026-04-25 04:44 | 33.92450 | -118.54726 | 6254 ft | 272 kts | 265° |
| 2026-04-25 04:44 | 33.92266 | -118.56934 | 7409 ft | 270 kts | 265° |
| 2026-04-25 04:44 | 33.92082 | -118.59146 | 8506 ft | 269 kts | 265° |
| 2026-04-25 04:44 | 33.91897 | -118.61374 | 9538 ft | 269 kts | 265° |
| 2026-04-25 04:45 | 33.91777 | -118.63564 | 10522 ft | 269 kts | 269° |
| 2026-04-25 04:45 | 33.91769 | -118.65850 | 11306 ft | 278 kts | 269° |
| 2026-04-25 04:45 | 33.91761 | -118.68199 | 11911 ft | 288 kts | 268° |
| 2026-04-25 04:45 | 33.91751 | -118.70657 | 12002 ft | 301 kts | 268° |
| 2026-04-25 04:46 | 33.91742 | -118.73193 | 12010 ft | 303 kts | 268° |
| 2026-04-25 04:46 | 33.91731 | -118.75748 | 12069 ft | 305 kts | 268° |
| 2026-04-25 04:46 | 33.91721 | -118.78303 | 11952 ft | 303 kts | 268° |
| 2026-04-25 04:46 | 33.91709 | -118.80843 | 12055 ft | 304 kts | 268° |
| 2026-04-25 04:47 | 33.91705 | -118.83401 | 12052 ft | 307 kts | 270° |
| 2026-04-25 04:47 | 33.91783 | -118.86087 | 12513 ft | 325 kts | 270° |
| 2026-04-25 04:47 | 33.91865 | -118.88773 | 13547 ft | 318 kts | 270° |
| 2026-04-25 04:47 | 33.91941 | -118.91368 | 14110 ft | 321 kts | 270° |
| 2026-04-25 04:48 | 33.92020 | -118.94069 | 14970 ft | 322 kts | 270° |
| 2026-04-25 04:48 | 33.92097 | -118.96712 | 16043 ft | 316 kts | 270° |
| 2026-04-25 04:48 | 33.92173 | -118.99329 | 17033 ft | 311 kts | 270° |
| 2026-04-25 04:48 | 33.92489 | -119.01884 | 17869 ft | 315 kts | 288° |
| 2026-04-25 04:49 | 33.93562 | -119.04204 | 18572 ft | 322 kts | 296° |
| 2026-04-25 04:49 | 33.94732 | -119.06470 | 19279 ft | 324 kts | 296° |
| 2026-04-25 04:49 | 33.95937 | -119.08806 | 19992 ft | 326 kts | 296° |
| 2026-04-25 04:49 | 33.97114 | -119.11086 | 20707 ft | 326 kts | 296° |
| 2026-04-25 04:50 | 33.98309 | -119.13403 | 21380 ft | 327 kts | 296° |
| 2026-04-25 04:50 | 33.99518 | -119.15749 | 22019 ft | 329 kts | 295° |
| 2026-04-25 04:50 | 34.00754 | -119.18068 | 22663 ft | 334 kts | 302° |
| 2026-04-25 04:50 | 34.02482 | -119.19981 | 23010 ft | 346 kts | 315° |
| 2026-04-25 04:51 | 34.04485 | -119.21659 | 23030 ft | 350 kts | 316° |
| 2026-04-25 04:51 | 34.06455 | -119.23328 | 23034 ft | 348 kts | 315° |
| 2026-04-25 04:51 | 34.08458 | -119.25040 | 23039 ft | 351 kts | 315° |
| 2026-04-25 04:51 | 34.10447 | -119.26747 | 23032 ft | 350 kts | 315° |
| 2026-04-25 04:52 | 34.12450 | -119.28469 | 23034 ft | 351 kts | 315° |
| 2026-04-25 04:52 | 34.14446 | -119.30188 | 23028 ft | 351 kts | 315° |
| 2026-04-25 04:52 | 34.16430 | -119.31897 | 23036 ft | 352 kts | 315° |
| 2026-04-25 04:52 | 34.18415 | -119.33610 | 23333 ft | 362 kts | 316° |
| 2026-04-25 04:53 | 34.20481 | -119.35390 | 23982 ft | 362 kts | 315° |
| 2026-04-25 04:53 | 34.22539 | -119.37164 | 24671 ft | 361 kts | 315° |
| 2026-04-25 04:53 | 34.24574 | -119.38921 | 25348 ft | 360 kts | 315° |
| 2026-04-25 04:53 | 34.26595 | -119.40668 | 25873 ft | 362 kts | 315° |
| 2026-04-25 04:54 | 34.28684 | -119.42476 | 26336 ft | 366 kts | 315° |
| 2026-04-25 04:54 | 34.30779 | -119.44287 | 26787 ft | 370 kts | 315° |
| 2026-04-25 04:54 | 34.32867 | -119.46095 | 27274 ft | 372 kts | 315° |
| 2026-04-25 04:54 | 34.34976 | -119.47921 | 27754 ft | 374 kts | 314° |
| 2026-04-25 04:55 | 34.37090 | -119.49754 | 28185 ft | 377 kts | 315° |
| 2026-04-25 04:55 | 34.39241 | -119.51619 | 28645 ft | 379 kts | 315° |
| 2026-04-25 04:55 | 34.41321 | -119.53537 | 29023 ft | 376 kts | 309° |
| 2026-04-25 04:55 | 34.43152 | -119.55737 | 29475 ft | 373 kts | 306° |
| 2026-04-25 04:56 | 34.44965 | -119.57967 | 29900 ft | 375 kts | 306° |
| 2026-04-25 04:56 | 34.46796 | -119.60220 | 30306 ft | 377 kts | 306° |
| 2026-04-25 04:56 | 34.48649 | -119.62498 | 30680 ft | 380 kts | 306° |
| 2026-04-25 04:56 | 34.50501 | -119.64778 | 31026 ft | 383 kts | 305° |
| 2026-04-25 04:57 | 34.52397 | -119.67114 | 31388 ft | 386 kts | 306° |
| 2026-04-25 04:57 | 34.54282 | -119.69437 | 31823 ft | 387 kts | 305° |
| 2026-04-25 04:57 | 34.56168 | -119.71761 | 31968 ft | 386 kts | 305° |
| 2026-04-25 04:57 | 34.58075 | -119.74118 | 31976 ft | 397 kts | 305° |
| 2026-04-25 04:58 | 34.60031 | -119.76533 | 32025 ft | 407 kts | 305° |
| 2026-04-25 04:58 | 34.64069 | -119.81521 | 32058 ft | 414 kts | 306° |
| 2026-04-25 04:59 | 34.68085 | -119.86493 | 32055 ft | 413 kts | 306° |
| 2026-04-25 04:59 | 34.72117 | -119.91491 | 32055 ft | 411 kts | 305° |
| 2026-04-25 05:00 | 34.76144 | -119.96491 | 32051 ft | 415 kts | 306° |
| 2026-04-25 05:00 | 34.80136 | -120.01454 | 32055 ft | 411 kts | 306° |
| 2026-04-25 05:01 | 34.84135 | -120.06436 | 32057 ft | 414 kts | 305° |
| 2026-04-25 05:01 | 34.88158 | -120.11453 | 32054 ft | 414 kts | 306° |
| 2026-04-25 05:02 | 34.92195 | -120.16495 | 32051 ft | 413 kts | 306° |
| 2026-04-25 05:02 | 34.96171 | -120.21468 | 32048 ft | 412 kts | 305° |
| 2026-04-25 05:03 | 35.00201 | -120.26517 | 32039 ft | 414 kts | 306° |
| 2026-04-25 05:03 | 35.04184 | -120.31513 | 32043 ft | 414 kts | 305° |
| 2026-04-25 05:04 | 35.08205 | -120.36566 | 32034 ft | 415 kts | 306° |
| 2026-04-25 05:04 | 35.12442 | -120.41391 | 32032 ft | 417 kts | 309° |
| 2026-04-25 05:05 | 35.16713 | -120.46165 | 32038 ft | 419 kts | 309° |
| 2026-04-25 05:05 | 35.20987 | -120.50956 | 32036 ft | 416 kts | 309° |
| 2026-04-25 05:06 | 35.25269 | -120.55765 | 32034 ft | 418 kts | 309° |
| 2026-04-25 05:06 | 35.29543 | -120.60574 | 32036 ft | 418 kts | 309° |
| 2026-04-25 05:07 | 35.33658 | -120.65208 | 32035 ft | 419 kts | 309° |
| 2026-04-25 05:07 | 35.38065 | -120.70180 | 32051 ft | 420 kts | 309° |
| 2026-04-25 05:08 | 35.42354 | -120.75027 | 32050 ft | 420 kts | 309° |
| 2026-04-25 05:08 | 35.46652 | -120.79890 | 32047 ft | 418 kts | 309° |
| 2026-04-25 05:09 | 35.51176 | -120.84439 | 32050 ft | 425 kts | 315° |
| 2026-04-25 05:09 | 35.55915 | -120.88826 | 32045 ft | 425 kts | 315° |
| 2026-04-25 05:10 | 35.60634 | -120.93207 | 32034 ft | 426 kts | 315° |
| 2026-04-25 05:10 | 35.65359 | -120.97600 | 32033 ft | 425 kts | 315° |
| 2026-04-25 05:11 | 35.70106 | -121.02022 | 32028 ft | 426 kts | 315° |
| 2026-04-25 05:11 | 35.74819 | -121.06417 | 32035 ft | 427 kts | 315° |
| 2026-04-25 05:12 | 35.81913 | -121.13048 | 32032 ft | 429 kts | 316° |
| 2026-04-25 05:12 | 35.86661 | -121.17492 | 32027 ft | 423 kts | 316° |
| 2026-04-25 05:13 | 35.86918 | -121.17733 | 32028 ft | 422 kts | 316° |
| 2026-04-25 05:19 | 35.89713 | -121.20354 | 32030 ft | 422 kts | 316° |
| 2026-04-25 05:20 | 35.94374 | -121.24729 | 31762 ft | 422 kts | 316° |
| 2026-04-25 05:20 | 35.96687 | -121.26901 | 31316 ft | 415 kts | 316° |
| 2026-04-25 05:20 | 35.98976 | -121.29054 | 30850 ft | 411 kts | 316° |
| 2026-04-25 05:20 | 36.01237 | -121.31184 | 30406 ft | 409 kts | 316° |
| 2026-04-25 05:21 | 36.03503 | -121.33318 | 29967 ft | 404 kts | 316° |
| 2026-04-25 05:21 | 36.05713 | -121.35401 | 29509 ft | 405 kts | 317° |
| 2026-04-25 05:21 | 36.08007 | -121.37460 | 29058 ft | 404 kts | 322° |
| 2026-04-25 05:21 | 36.10327 | -121.39212 | 28636 ft | 406 kts | 322° |
| 2026-04-25 05:22 | 36.12687 | -121.41029 | 28194 ft | 403 kts | 322° |
| 2026-04-25 05:22 | 36.15076 | -121.42886 | 27751 ft | 403 kts | 322° |
| 2026-04-25 05:22 | 36.17462 | -121.44745 | 27296 ft | 402 kts | 323° |
| 2026-04-25 05:22 | 36.19828 | -121.46593 | 26847 ft | 400 kts | 323° |
| 2026-04-25 05:23 | 36.22180 | -121.48431 | 26404 ft | 397 kts | 323° |
| 2026-04-25 05:23 | 36.24498 | -121.50243 | 25970 ft | 395 kts | 323° |
| 2026-04-25 05:23 | 36.26829 | -121.52068 | 25534 ft | 393 kts | 324° |
| 2026-04-25 05:23 | 36.29120 | -121.53863 | 25106 ft | 392 kts | 324° |
| 2026-04-25 05:24 | 36.31431 | -121.55675 | 24669 ft | 391 kts | 324° |
| 2026-04-25 05:24 | 36.33718 | -121.57468 | 24245 ft | 389 kts | 325° |
| 2026-04-25 05:24 | 36.35996 | -121.59257 | 23817 ft | 387 kts | 325° |
| 2026-04-25 05:24 | 36.38255 | -121.61031 | 23396 ft | 385 kts | 325° |
| 2026-04-25 05:25 | 36.40524 | -121.62815 | 22968 ft | 383 kts | 325° |
| 2026-04-25 05:25 | 36.42775 | -121.64585 | 22548 ft | 381 kts | 325° |
| 2026-04-25 05:25 | 36.44997 | -121.66335 | 22134 ft | 379 kts | 325° |
| 2026-04-25 05:25 | 36.47216 | -121.68082 | 21721 ft | 376 kts | 324° |
| 2026-04-25 05:26 | 36.49418 | -121.69818 | 21312 ft | 373 kts | 324° |
| 2026-04-25 05:26 | 36.51587 | -121.71530 | 20934 ft | 372 kts | 325° |
| 2026-04-25 05:26 | 36.53779 | -121.73262 | 20526 ft | 371 kts | 325° |
| 2026-04-25 05:26 | 36.55935 | -121.74966 | 20123 ft | 369 kts | 325° |
| 2026-04-25 05:27 | 36.58097 | -121.76677 | 19713 ft | 368 kts | 325° |
| 2026-04-25 05:27 | 36.60256 | -121.78385 | 19305 ft | 365 kts | 325° |
| 2026-04-25 05:27 | 36.62400 | -121.80084 | 18899 ft | 363 kts | 325° |
| 2026-04-25 05:27 | 36.64521 | -121.81764 | 18503 ft | 361 kts | 325° |
| 2026-04-25 05:28 | 36.66650 | -121.83453 | 18102 ft | 359 kts | 325° |
| 2026-04-25 05:28 | 36.68738 | -121.85111 | 17711 ft | 357 kts | 325° |
| 2026-04-25 05:28 | 36.70814 | -121.86759 | 17315 ft | 353 kts | 325° |
| 2026-04-25 05:28 | 36.72885 | -121.88406 | 16928 ft | 351 kts | 326° |
| 2026-04-25 05:29 | 36.75098 | -121.89635 | 16557 ft | 351 kts | 344° |
| 2026-04-25 05:29 | 36.77455 | -121.90326 | 16171 ft | 349 kts | 346° |
| 2026-04-25 05:29 | 36.79823 | -121.90994 | 15779 ft | 344 kts | 346° |
| 2026-04-25 05:29 | 36.82135 | -121.91641 | 15395 ft | 341 kts | 346° |
| 2026-04-25 05:30 | 36.84472 | -121.92295 | 15012 ft | 340 kts | 347° |
| 2026-04-25 05:30 | 36.86768 | -121.92937 | 14629 ft | 336 kts | 347° |
| 2026-04-25 05:30 | 36.89028 | -121.93569 | 14262 ft | 334 kts | 347° |
| 2026-04-25 05:30 | 36.91300 | -121.94204 | 13898 ft | 332 kts | 348° |
| 2026-04-25 05:31 | 36.93560 | -121.94836 | 13527 ft | 329 kts | 348° |
| 2026-04-25 05:31 | 36.95764 | -121.95515 | 13226 ft | 328 kts | 343° |
| 2026-04-25 05:31 | 36.97963 | -121.96377 | 12896 ft | 330 kts | 343° |
| 2026-04-25 05:31 | 37.00148 | -121.97231 | 12538 ft | 330 kts | 343° |
| 2026-04-25 05:32 | 37.02347 | -121.98089 | 12169 ft | 329 kts | 343° |
| 2026-04-25 05:32 | 37.04521 | -121.98937 | 11804 ft | 328 kts | 342° |
| 2026-04-25 05:32 | 37.06697 | -121.99787 | 11437 ft | 321 kts | 342° |
| 2026-04-25 05:32 | 37.08783 | -122.00602 | 11086 ft | 313 kts | 342° |
| 2026-04-25 05:33 | 37.10860 | -122.01413 | 10738 ft | 306 kts | 342° |
| 2026-04-25 05:33 | 37.12867 | -122.02197 | 10400 ft | 296 kts | 342° |
| 2026-04-25 05:33 | 37.14804 | -122.02955 | 10080 ft | 286 kts | 342° |
| 2026-04-25 05:33 | 37.16697 | -122.03696 | 9763 ft | 277 kts | 342° |
| 2026-04-25 05:34 | 37.18530 | -122.04414 | 9468 ft | 274 kts | 342° |
| 2026-04-25 05:34 | 37.20346 | -122.05125 | 9173 ft | 276 kts | 341° |
| 2026-04-25 05:34 | 37.22183 | -122.05846 | 8871 ft | 276 kts | 342° |
| 2026-04-25 05:34 | 37.24024 | -122.06567 | 8563 ft | 276 kts | 341° |
| 2026-04-25 05:35 | 37.25855 | -122.07286 | 8256 ft | 275 kts | 342° |
| 2026-04-25 05:35 | 37.27687 | -122.08006 | 7952 ft | 273 kts | 342° |
| 2026-04-25 05:35 | 37.29500 | -122.08719 | 7615 ft | 273 kts | 342° |
| 2026-04-25 05:35 | 37.31307 | -122.09431 | 7258 ft | 273 kts | 342° |
| 2026-04-25 05:36 | 37.33105 | -122.10139 | 6897 ft | 269 kts | 342° |
| 2026-04-25 05:36 | 37.34871 | -122.10835 | 6542 ft | 263 kts | 342° |
| 2026-04-25 05:36 | 37.36596 | -122.11516 | 6197 ft | 257 kts | 342° |
| 2026-04-25 05:36 | 37.38311 | -122.12150 | 5855 ft | 252 kts | 345° |
| 2026-04-25 05:37 | 37.39992 | -122.12727 | 5471 ft | 246 kts | 345° |
| 2026-04-25 05:37 | 37.41611 | -122.13282 | 5182 ft | 239 kts | 345° |
| 2026-04-25 05:37 | 37.43187 | -122.13823 | 4828 ft | 232 kts | 345° |
| 2026-04-25 05:37 | 37.44740 | -122.14356 | 4523 ft | 230 kts | 345° |
| 2026-04-25 05:38 | 37.46272 | -122.14882 | 4263 ft | 227 kts | 345° |
| 2026-04-25 05:38 | 37.47799 | -122.15407 | 4013 ft | 227 kts | 345° |
| 2026-04-25 05:38 | 37.49344 | -122.15938 | 3762 ft | 227 kts | 345° |
| 2026-04-25 05:38 | 37.50858 | -122.16459 | 3529 ft | 223 kts | 345° |
| 2026-04-25 05:39 | 37.52314 | -122.16960 | 3300 ft | 215 kts | 345° |
| 2026-04-25 05:39 | 37.53534 | -122.17960 | 3029 ft | 208 kts | 305° |
| 2026-04-25 05:39 | 37.54258 | -122.19501 | 2782 ft | 202 kts | 298° |
| 2026-04-25 05:39 | 37.54928 | -122.21042 | 2514 ft | 198 kts | 297° |
| 2026-04-25 05:40 | 37.55571 | -122.22558 | 2266 ft | 193 kts | 296° |
| 2026-04-25 05:40 | 37.56177 | -122.24019 | 2028 ft | 188 kts | 297° |
| 2026-04-25 05:40 | 37.56786 | -122.25462 | 1785 ft | 178 kts | 296° |
| 2026-04-25 05:40 | 37.57327 | -122.26743 | 1623 ft | 155 kts | 296° |
| 2026-04-25 05:41 | 37.57807 | -122.27876 | 1403 ft | 141 kts | 296° |
| 2026-04-25 05:41 | 37.58260 | -122.28949 | 1215 ft | 135 kts | 295° |
| 2026-04-25 05:41 | 37.58695 | -122.29980 | 1045 ft | 132 kts | 295° |
| 2026-04-25 05:41 | 37.59111 | -122.30964 | 870 ft | 120 kts | 295° |
| 2026-04-25 05:42 | 37.59487 | -122.31856 | 713 ft | 112 kts | 295° |
| 2026-04-25 05:42 | 37.59848 | -122.32713 | 585 ft | 110 kts | 295° |
| 2026-04-25 05:42 | 37.60202 | -122.33552 | 451 ft | 107 kts | 294° |
| 2026-04-25 05:42 | 37.60556 | -122.34357 | 317 ft | 104 kts | 295° |
| 2026-04-25 05:43 | 37.60897 | -122.35175 | 149 ft | 104 kts | 293° |
| 2026-04-25 05:43 | 37.61228 | -122.35970 | 47 ft | 99 kts | 294° |
| 2026-04-25 05:43 | 37.61509 | -122.36645 | 20 ft | 64 kts | 296° |
| 2026-04-25 05:43 | 37.61664 | -122.37013 | 20 ft | 38 kts | 295° |
| 2026-04-25 05:44 | 37.61716 | -122.37175 | 20 ft | 15 kts | 254° |
| 2026-04-25 05:44 | 37.61654 | -122.37234 | 20 ft | 0 kts | 208° |
| 2026-04-25 05:45 | 37.61653 | -122.37234 | 20 ft | 1 kts | 211° |
| 2026-04-25 05:45 | 37.61631 | -122.37249 | 20 ft | 6 kts | 207° |
| 2026-04-25 05:46 | 37.61586 | -122.37277 | 20 ft | 6 kts | 207° |
| 2026-04-25 05:46 | 37.61554 | -122.37302 | 20 ft | 4 kts | 216° |
| 2026-04-25 05:46 | 37.61537 | -122.37315 | 20 ft | 1 kts | 211° |
| 2026-04-25 05:46 | 37.61530 | -122.37320 | 20 ft | 1 kts | 212° |
| 2026-04-25 05:47 | 37.61508 | -122.37335 | 20 ft | 7 kts | 209° |
| 2026-04-25 05:47 | 37.61465 | -122.37363 | 20 ft | 2 kts | 207° |
| 2026-04-25 05:47 | 37.61458 | -122.37368 | 20 ft | 0 kts | 207° |
| 2026-04-25 05:48 | 37.61402 | -122.37402 | 20 ft | 18 kts | 210° |
| 2026-04-25 05:48 | 37.61292 | -122.37476 | 20 ft | 16 kts | 214° |
| 2026-04-25 05:48 | 37.61237 | -122.37557 | 20 ft | 0 kts | 248° |
| 2026-04-25 05:49 | 37.61236 | -122.37560 | 20 ft | 1 kts | 249° |
| 2026-04-25 05:50 | 37.61229 | -122.37583 | 20 ft | 3 kts | 255° |
| 2026-04-25 05:50 | 37.61227 | -122.37627 | 20 ft | 6 kts | 274° |
| 2026-04-25 05:50 | 37.61241 | -122.37695 | 20 ft | 9 kts | 297° |
| 2026-04-25 05:50 | 37.61277 | -122.37785 | 20 ft | 12 kts | 296° |
| 2026-04-25 05:51 | 37.61322 | -122.37892 | 20 ft | 14 kts | 296° |
| 2026-04-25 05:51 | 37.61369 | -122.38003 | 20 ft | 14 kts | 297° |
| 2026-04-25 05:51 | 37.61401 | -122.38115 | 20 ft | 13 kts | 253° |
| 2026-04-25 05:51 | 37.61337 | -122.38179 | 20 ft | 10 kts | 212° |
| 2026-04-25 05:52 | 37.61284 | -122.38213 | 20 ft | 6 kts | 208° |
| 2026-04-25 05:52 | 37.61239 | -122.38246 | 20 ft | 8 kts | 211° |
| 2026-04-25 05:52 | 37.61194 | -122.38277 | 20 ft | 5 kts | 208° |
| 2026-04-25 05:52 | 37.61165 | -122.38295 | 20 ft | 4 kts | 210° |
| 2026-04-25 05:53 | 37.61140 | -122.38312 | 20 ft | 4 kts | 206° |
| 2026-04-25 05:53 | 37.61097 | -122.38339 | 20 ft | 10 kts | 208° |
| 2026-04-25 05:53 | 37.61026 | -122.38390 | 20 ft | 10 kts | 215° |
| 2026-04-25 05:53 | 37.60976 | -122.38435 | 20 ft | 7 kts | 218° |
| 2026-04-25 05:54 | 37.60940 | -122.38465 | 20 ft | 5 kts | 211° |
| 2026-04-25 05:54 | 37.60901 | -122.38494 | 20 ft | 7 kts | 214° |
| 2026-04-25 05:54 | 37.60931 | -122.38670 | 20 ft | 15 kts | 297° |
| 2026-04-25 05:55 | 37.60981 | -122.38792 | 20 ft | 15 kts | 303° |
| 2026-04-25 05:55 | 37.61064 | -122.38805 | 20 ft | 12 kts | 29° |
| 2026-04-25 05:55 | 37.61137 | -122.38757 | 20 ft | 11 kts | 29° |
| 2026-04-25 05:55 | 37.61204 | -122.38714 | 20 ft | 10 kts | 23° |
| 2026-04-25 05:56 | 37.61266 | -122.38674 | 20 ft | 9 kts | 28° |
| 2026-04-25 05:56 | 37.61306 | -122.38612 | 20 ft | 10 kts | 69° |
| 2026-04-25 05:56 | 37.61325 | -122.38566 | 20 ft | 4 kts | 46° |
| 2026-04-25 05:56 | 37.61328 | -122.38560 | 20 ft | 0 kts | 48° |